KSSI/SSI METAR and TAF weather

Enter ICAO airport designator
Station Type Date Time Source
KSSI METAR 2021/08/02 01:53 UTC NOAA

KSSI 020153Z AUTO 25010KT 10SM CLR 24/23 A2999 RMK AO2 SLP155 T02440233


Station Type Date Time Source
KSSI Decoded METAR 2021/08/02 01:53 UTC NOAA

BRUNSWICK MC KINNON AIRPORT , GA, United States (KSSI) 31-09N 081-23W 6M
Aug 01, 2021 - 09:53 PM EDT / 2021.08.02 0153 UTC
Wind: from the WSW (250 degrees) at 12 MPH (10 KT):0
Visibility: 10 mile(s):0
Sky conditions: clear
Temperature: 75.9 F (24.4 C)
Dew Point: 73.9 F (23.3 C)
Relative Humidity: 93%
Pressure (altimeter): 29.99 in. Hg (1015 hPa)
ob: KSSI 020153Z AUTO 25010KT 10SM CLR 24/23 A2999 RMK AO2 SLP155 T02440233
cycle: 2

Station Type Date Time Source
KSSI TAF 2021/08/02 01:48 UTC NOAA

TAF
AMD KSSI 020045Z 0201/0224 22012KT P6SM VCSH SCT080 BKN250
FM020300 23008KT P6SM SCT100 BKN250
FM021400 25006KT P6SM SCT030 SCT250
TEMPO 0220/0224 4SM TSRA BR OVC030CB

Example: see airport list